LFLC/CFE METAR and TAF weather

Enter ICAO airport designator
Station Type Date Time Source
LFLC METAR 2021/02/24 18:00 UTC NOAA

LFLC 241800Z AUTO 18008KT CAVOK 16/M01 Q1028 TEMPO 17015G25KT


Station Type Date Time Source
LFLC Decoded METAR 2021/02/24 18:00 UTC NOAA

Clermont-Ferrand, France (LFLC) 45-47N 003-10E 330M
Feb 24, 2021 - 01:00 PM EST / 2021.02.24 1800 UTC
Wind: from the S (180 degrees) at 9 MPH (8 KT):0
Visibility: greater than 7 mile(s):0
Temperature: 60 F (16 C)
Dew Point: 30 F (-1 C)
Relative Humidity: 31%
Pressure (altimeter): 30.36 in. Hg (1028 hPa)
ob: LFLC 241800Z AUTO 18008KT CAVOK 16/M01 Q1028 TEMPO 17015G25KT
cycle: 18

Station Type Date Time Source
LFLC TAF 2021/02/24 18:52 UTC NOAA

TAF LFLC 241700Z 2418/2518 18010KT CAVOK
TEMPO 2418/2503 17015G25KT

Example: see airport list